sensor_id;sensor_type;location;lat;lon;timestamp;P1;durP1;ratioP1;P2;durP2;ratioP2
38549;SDS011;24322;52.004;5.948;2022-08-03T00:01:36;2.20;;;1.00;;
38549;SDS011;24322;52.004;5.948;2022-08-03T00:04:03;3.88;;;1.65;;
38549;SDS011;24322;52.004;5.948;2022-08-03T00:06:29;2.60;;;1.00;;
38549;SDS011;24322;52.004;5.948;2022-08-03T00:08:55;3.17;;;1.15;;
38549;SDS011;24322;52.004;5.948;2022-08-03T00:11:21;2.30;;;1.00;;
38549;SDS011;24322;52.004;5.948;2022-08-03T00:13:47;1.25;;;0.68;;
38549;SDS011;24322;52.004;5.948;2022-08-03T00:16:13;4.63;;;1.25;;
38549;SDS011;24322;52.004;5.948;2022-08-03T00:18:38;1.40;;;0.88;;
38549;SDS011;24322;52.004;5.948;2022-08-03T00:21:04;2.20;;;1.00;;
38549;SDS011;24322;52.004;5.948;2022-08-03T00:23:30;2.33;;;1.27;;
38549;SDS011;24322;52.004;5.948;2022-08-03T00:25:56;2.97;;;1.30;;
38549;SDS011;24322;52.004;5.948;2022-08-03T00:28:22;3.72;;;0.80;;
38549;SDS011;24322;52.004;5.948;2022-08-03T00:30:47;14.73;;;1.67;;
38549;SDS011;24322;52.004;5.948;2022-08-03T00:33:13;2.47;;;0.90;;
38549;SDS011;24322;52.004;5.948;2022-08-03T00:35:39;2.88;;;0.88;;
38549;SDS011;24322;52.004;5.948;2022-08-03T00:38:04;3.22;;;1.27;;
38549;SDS011;24322;52.004;5.948;2022-08-03T00:40:31;2.83;;;1.17;;
38549;SDS011;24322;52.004;5.948;2022-08-03T00:42:58;2.08;;;1.20;;
38549;SDS011;24322;52.004;5.948;2022-08-03T00:45:30;3.40;;;1.00;;
38549;SDS011;24322;52.004;5.948;2022-08-03T00:47:58;3.83;;;1.25;;
38549;SDS011;24322;52.004;5.948;2022-08-03T00:50:26;3.03;;;1.10;;
38549;SDS011;24322;52.004;5.948;2022-08-03T00:52:54;4.05;;;1.30;;
38549;SDS011;24322;52.004;5.948;2022-08-03T00:55:21;2.97;;;1.60;;
38549;SDS011;24322;52.004;5.948;2022-08-03T00:57:47;4.22;;;1.40;;
38549;SDS011;24322;52.004;5.948;2022-08-03T01:00:14;3.30;;;1.35;;
38549;SDS011;24322;52.004;5.948;2022-08-03T01:02:42;2.78;;;1.30;;
38549;SDS011;24322;52.004;5.948;2022-08-03T01:05:08;6.50;;;1.08;;
38549;SDS011;24322;52.004;5.948;2022-08-03T01:12:58;3.10;;;1.65;;
38549;SDS011;24322;52.004;5.948;2022-08-03T01:15:39;4.30;;;1.70;;
38549;SDS011;24322;52.004;5.948;2022-08-03T01:18:26;1.63;;;0.93;;
38549;SDS011;24322;52.004;5.948;2022-08-03T01:21:17;4.00;;;1.48;;
38549;SDS011;24322;52.004;5.948;2022-08-03T01:29:35;2.53;;;1.20;;
38549;SDS011;24322;52.004;5.948;2022-08-03T01:32:14;3.83;;;1.42;;
38549;SDS011;24322;52.004;5.948;2022-08-03T01:34:51;4.70;;;1.30;;
38549;SDS011;24322;52.004;5.948;2022-08-03T01:37:26;3.50;;;1.30;;
38549;SDS011;24322;52.004;5.948;2022-08-03T01:40:11;4.35;;;1.33;;
38549;SDS011;24322;52.004;5.948;2022-08-03T01:42:40;5.82;;;1.95;;
38549;SDS011;24322;52.004;5.948;2022-08-03T01:45:07;4.68;;;1.27;;
38549;SDS011;24322;52.004;5.948;2022-08-03T01:47:36;3.22;;;1.20;;
38549;SDS011;24322;52.004;5.948;2022-08-03T01:50:03;5.10;;;1.20;;
38549;SDS011;24322;52.004;5.948;2022-08-03T01:52:31;2.85;;;1.20;;
38549;SDS011;24322;52.004;5.948;2022-08-03T01:54:58;2.35;;;0.93;;
38549;SDS011;24322;52.004;5.948;2022-08-03T01:57:26;5.30;;;1.40;;
38549;SDS011;24322;52.004;5.948;2022-08-03T01:59:54;2.88;;;1.10;;
38549;SDS011;24322;52.004;5.948;2022-08-03T02:02:21;3.25;;;1.02;;
38549;SDS011;24322;52.004;5.948;2022-08-03T02:04:50;1.23;;;1.00;;
38549;SDS011;24322;52.004;5.948;2022-08-03T02:07:18;2.83;;;1.17;;
38549;SDS011;24322;52.004;5.948;2022-08-03T02:09:45;1.38;;;0.73;;
38549;SDS011;24322;52.004;5.948;2022-08-03T02:12:16;1.73;;;1.33;;
38549;SDS011;24322;52.004;5.948;2022-08-03T02:14:43;3.40;;;1.52;;
38549;SDS011;24322;52.004;5.948;2022-08-03T02:17:10;3.75;;;1.55;;
38549;SDS011;24322;52.004;5.948;2022-08-03T02:19:38;3.72;;;1.25;;
38549;SDS011;24322;52.004;5.948;2022-08-03T02:22:06;2.65;;;1.30;;
38549;SDS011;24322;52.004;5.948;2022-08-03T02:24:34;4.10;;;1.27;;
38549;SDS011;24322;52.004;5.948;2022-08-03T02:27:00;3.83;;;1.17;;
38549;SDS011;24322;52.004;5.948;2022-08-03T02:29:30;7.72;;;1.35;;
38549;SDS011;24322;52.004;5.948;2022-08-03T02:31:58;2.55;;;1.00;;
38549;SDS011;24322;52.004;5.948;2022-08-03T02:34:28;2.45;;;1.10;;
38549;SDS011;24322;52.004;5.948;2022-08-03T02:36:56;2.22;;;1.17;;
38549;SDS011;24322;52.004;5.948;2022-08-03T02:39:24;4.75;;;2.17;;
38549;SDS011;24322;52.004;5.948;2022-08-03T02:41:53;3.83;;;1.15;;
38549;SDS011;24322;52.004;5.948;2022-08-03T02:44:26;3.65;;;0.90;;
38549;SDS011;24322;52.004;5.948;2022-08-03T02:46:56;3.05;;;1.27;;
38549;SDS011;24322;52.004;5.948;2022-08-03T02:49:25;2.85;;;1.30;;
38549;SDS011;24322;52.004;5.948;2022-08-03T02:51:52;3.85;;;1.20;;
38549;SDS011;24322;52.004;5.948;2022-08-03T02:54:21;1.45;;;1.10;;
38549;SDS011;24322;52.004;5.948;2022-08-03T02:56:49;2.03;;;0.90;;
38549;SDS011;24322;52.004;5.948;2022-08-03T02:59:16;3.58;;;1.25;;
38549;SDS011;24322;52.004;5.948;2022-08-03T03:01:44;4.22;;;1.35;;
38549;SDS011;24322;52.004;5.948;2022-08-03T03:04:10;2.42;;;1.30;;
38549;SDS011;24322;52.004;5.948;2022-08-03T03:06:37;2.63;;;1.40;;
38549;SDS011;24322;52.004;5.948;2022-08-03T03:09:04;4.90;;;1.20;;
38549;SDS011;24322;52.004;5.948;2022-08-03T03:11:30;3.45;;;1.08;;
38549;SDS011;24322;52.004;5.948;2022-08-03T03:13:57;4.85;;;1.85;;
38549;SDS011;24322;52.004;5.948;2022-08-03T03:16:24;3.25;;;1.52;;
38549;SDS011;24322;52.004;5.948;2022-08-03T03:18:52;4.05;;;1.20;;
38549;SDS011;24322;52.004;5.948;2022-08-03T03:21:18;2.67;;;1.10;;
38549;SDS011;24322;52.004;5.948;2022-08-03T03:23:46;2.05;;;1.30;;
38549;SDS011;24322;52.004;5.948;2022-08-03T03:26:13;4.32;;;1.38;;
38549;SDS011;24322;52.004;5.948;2022-08-03T03:28:39;3.13;;;1.27;;
38549;SDS011;24322;52.004;5.948;2022-08-03T03:31:06;5.07;;;1.70;;
38549;SDS011;24322;52.004;5.948;2022-08-03T03:33:33;3.50;;;1.50;;
38549;SDS011;24322;52.004;5.948;2022-08-03T03:35:59;2.17;;;1.20;;
38549;SDS011;24322;52.004;5.948;2022-08-03T03:38:25;2.70;;;1.30;;
38549;SDS011;24322;52.004;5.948;2022-08-03T03:40:51;2.85;;;1.42;;
38549;SDS011;24322;52.004;5.948;2022-08-03T03:43:17;4.25;;;1.27;;
38549;SDS011;24322;52.004;5.948;2022-08-03T03:45:43;4.88;;;1.75;;
38549;SDS011;24322;52.004;5.948;2022-08-03T03:48:09;3.15;;;1.42;;
38549;SDS011;24322;52.004;5.948;2022-08-03T03:50:36;2.40;;;1.15;;
38549;SDS011;24322;52.004;5.948;2022-08-03T03:53:07;2.55;;;1.23;;
38549;SDS011;24322;52.004;5.948;2022-08-03T03:55:34;5.07;;;1.60;;
38549;SDS011;24322;52.004;5.948;2022-08-03T03:58:01;2.58;;;1.63;;
38549;SDS011;24322;52.004;5.948;2022-08-03T04:00:28;4.20;;;1.65;;
38549;SDS011;24322;52.004;5.948;2022-08-03T04:02:53;2.95;;;1.58;;
38549;SDS011;24322;52.004;5.948;2022-08-03T04:05:19;3.28;;;1.23;;
38549;SDS011;24322;52.004;5.948;2022-08-03T04:08:08;4.68;;;1.33;;
38549;SDS011;24322;52.004;5.948;2022-08-03T04:13:42;3.60;;;1.48;;
38549;SDS011;24322;52.004;5.948;2022-08-03T04:16:29;2.70;;;1.30;;
38549;SDS011;24322;52.004;5.948;2022-08-03T04:18:57;7.05;;;1.95;;
38549;SDS011;24322;52.004;5.948;2022-08-03T04:21:25;2.83;;;1.30;;
38549;SDS011;24322;52.004;5.948;2022-08-03T04:23:53;6.43;;;1.90;;
38549;SDS011;24322;52.004;5.948;2022-08-03T04:26:23;3.38;;;1.80;;
38549;SDS011;24322;52.004;5.948;2022-08-03T04:28:52;2.97;;;1.67;;
38549;SDS011;24322;52.004;5.948;2022-08-03T04:31:22;4.60;;;2.00;;
38549;SDS011;24322;52.004;5.948;2022-08-03T04:33:49;4.20;;;1.52;;
38549;SDS011;24322;52.004;5.948;2022-08-03T04:36:16;4.32;;;1.90;;
38549;SDS011;24322;52.004;5.948;2022-08-03T04:38:53;4.80;;;1.90;;
38549;SDS011;24322;52.004;5.948;2022-08-03T04:41:24;4.68;;;2.00;;
38549;SDS011;24322;52.004;5.948;2022-08-03T04:43:52;2.78;;;1.77;;
38549;SDS011;24322;52.004;5.948;2022-08-03T04:46:22;4.82;;;2.70;;
38549;SDS011;24322;52.004;5.948;2022-08-03T04:48:51;3.97;;;1.85;;
38549;SDS011;24322;52.004;5.948;2022-08-03T04:51:18;6.28;;;2.47;;
38549;SDS011;24322;52.004;5.948;2022-08-03T04:53:43;5.40;;;2.08;;
38549;SDS011;24322;52.004;5.948;2022-08-03T04:56:09;3.80;;;1.88;;
38549;SDS011;24322;52.004;5.948;2022-08-03T04:58:34;6.55;;;2.15;;
38549;SDS011;24322;52.004;5.948;2022-08-03T05:01:00;7.28;;;2.17;;
38549;SDS011;24322;52.004;5.948;2022-08-03T05:03:26;6.32;;;2.15;;
38549;SDS011;24322;52.004;5.948;2022-08-03T05:05:52;5.28;;;1.85;;
38549;SDS011;24322;52.004;5.948;2022-08-03T05:08:18;3.90;;;2.05;;
38549;SDS011;24322;52.004;5.948;2022-08-03T05:10:44;6.20;;;2.25;;
38549;SDS011;24322;52.004;5.948;2022-08-03T05:13:10;4.47;;;2.00;;
38549;SDS011;24322;52.004;5.948;2022-08-03T05:15:37;3.53;;;2.22;;
38549;SDS011;24322;52.004;5.948;2022-08-03T05:18:03;6.97;;;2.65;;
38549;SDS011;24322;52.004;5.948;2022-08-03T05:20:29;6.85;;;2.65;;
38549;SDS011;24322;52.004;5.948;2022-08-03T05:22:55;7.10;;;2.80;;
38549;SDS011;24322;52.004;5.948;2022-08-03T05:25:21;8.35;;;3.50;;
38549;SDS011;24322;52.004;5.948;2022-08-03T05:27:47;7.97;;;3.17;;
38549;SDS011;24322;52.004;5.948;2022-08-03T05:30:13;5.95;;;2.45;;
38549;SDS011;24322;52.004;5.948;2022-08-03T05:32:39;6.40;;;2.80;;
38549;SDS011;24322;52.004;5.948;2022-08-03T05:35:04;16.90;;;4.65;;
38549;SDS011;24322;52.004;5.948;2022-08-03T05:37:30;9.73;;;3.42;;
38549;SDS011;24322;52.004;5.948;2022-08-03T05:39:56;11.13;;;3.33;;
38549;SDS011;24322;52.004;5.948;2022-08-03T05:42:21;7.65;;;3.63;;
38549;SDS011;24322;52.004;5.948;2022-08-03T05:44:47;9.18;;;3.88;;
38549;SDS011;24322;52.004;5.948;2022-08-03T05:47:13;8.05;;;3.83;;
38549;SDS011;24322;52.004;5.948;2022-08-03T05:49:38;12.35;;;4.43;;
38549;SDS011;24322;52.004;5.948;2022-08-03T05:52:04;10.40;;;3.63;;
38549;SDS011;24322;52.004;5.948;2022-08-03T05:54:29;15.27;;;4.13;;
38549;SDS011;24322;52.004;5.948;2022-08-03T05:56:55;10.30;;;3.80;;
38549;SDS011;24322;52.004;5.948;2022-08-03T05:59:21;10.60;;;3.67;;
38549;SDS011;24322;52.004;5.948;2022-08-03T06:01:46;10.23;;;3.75;;
38549;SDS011;24322;52.004;5.948;2022-08-03T06:04:12;7.80;;;3.13;;
38549;SDS011;24322;52.004;5.948;2022-08-03T06:06:38;6.72;;;2.58;;
38549;SDS011;24322;52.004;5.948;2022-08-03T06:09:03;10.13;;;3.67;;
38549;SDS011;24322;52.004;5.948;2022-08-03T06:11:29;9.38;;;3.95;;
38549;SDS011;24322;52.004;5.948;2022-08-03T06:13:55;6.85;;;2.42;;
38549;SDS011;24322;52.004;5.948;2022-08-03T06:16:20;6.05;;;2.10;;
38549;SDS011;24322;52.004;5.948;2022-08-03T06:18:46;8.57;;;2.78;;
38549;SDS011;24322;52.004;5.948;2022-08-03T06:21:11;8.13;;;2.90;;
38549;SDS011;24322;52.004;5.948;2022-08-03T06:23:37;7.68;;;3.22;;
38549;SDS011;24322;52.004;5.948;2022-08-03T06:26:03;9.95;;;3.45;;
38549;SDS011;24322;52.004;5.948;2022-08-03T06:28:28;7.70;;;2.15;;
38549;SDS011;24322;52.004;5.948;2022-08-03T06:30:54;9.45;;;3.10;;
38549;SDS011;24322;52.004;5.948;2022-08-03T06:33:20;9.30;;;2.83;;
38549;SDS011;24322;52.004;5.948;2022-08-03T06:35:46;4.40;;;1.88;;
38549;SDS011;24322;52.004;5.948;2022-08-03T06:38:11;7.20;;;2.88;;
38549;SDS011;24322;52.004;5.948;2022-08-03T06:40:37;14.65;;;3.65;;
38549;SDS011;24322;52.004;5.948;2022-08-03T06:43:06;10.77;;;3.13;;
38549;SDS011;24322;52.004;5.948;2022-08-03T06:45:32;7.53;;;2.15;;
38549;SDS011;24322;52.004;5.948;2022-08-03T06:48:00;5.55;;;2.33;;
38549;SDS011;24322;52.004;5.948;2022-08-03T06:50:27;8.73;;;2.97;;
38549;SDS011;24322;52.004;5.948;2022-08-03T06:52:53;5.70;;;2.47;;
38549;SDS011;24322;52.004;5.948;2022-08-03T06:55:19;7.22;;;2.38;;
38549;SDS011;24322;52.004;5.948;2022-08-03T06:57:44;4.80;;;2.55;;
38549;SDS011;24322;52.004;5.948;2022-08-03T07:00:10;7.13;;;2.25;;
38549;SDS011;24322;52.004;5.948;2022-08-03T07:02:37;8.70;;;2.50;;
38549;SDS011;24322;52.004;5.948;2022-08-03T07:05:03;11.27;;;2.70;;
38549;SDS011;24322;52.004;5.948;2022-08-03T07:07:29;9.85;;;2.60;;
38549;SDS011;24322;52.004;5.948;2022-08-03T07:09:55;8.63;;;2.45;;
38549;SDS011;24322;52.004;5.948;2022-08-03T07:12:20;4.43;;;1.50;;
38549;SDS011;24322;52.004;5.948;2022-08-03T07:14:46;8.38;;;2.28;;
38549;SDS011;24322;52.004;5.948;2022-08-03T07:17:12;6.43;;;2.30;;
38549;SDS011;24322;52.004;5.948;2022-08-03T07:19:37;5.07;;;1.55;;
38549;SDS011;24322;52.004;5.948;2022-08-03T07:22:03;11.43;;;2.70;;
38549;SDS011;24322;52.004;5.948;2022-08-03T07:24:28;10.02;;;2.00;;
38549;SDS011;24322;52.004;5.948;2022-08-03T07:26:54;7.22;;;1.90;;
38549;SDS011;24322;52.004;5.948;2022-08-03T07:29:20;7.68;;;2.88;;
38549;SDS011;24322;52.004;5.948;2022-08-03T07:31:45;8.98;;;1.92;;
38549;SDS011;24322;52.004;5.948;2022-08-03T07:34:11;9.45;;;2.38;;
38549;SDS011;24322;52.004;5.948;2022-08-03T07:36:37;11.95;;;2.40;;
38549;SDS011;24322;52.004;5.948;2022-08-03T07:39:02;8.93;;;2.33;;
38549;SDS011;24322;52.004;5.948;2022-08-03T07:41:28;8.15;;;2.15;;
38549;SDS011;24322;52.004;5.948;2022-08-03T07:43:54;9.73;;;2.42;;
38549;SDS011;24322;52.004;5.948;2022-08-03T07:46:19;4.57;;;1.85;;
38549;SDS011;24322;52.004;5.948;2022-08-03T07:48:45;12.20;;;3.00;;
38549;SDS011;24322;52.004;5.948;2022-08-03T07:51:10;5.93;;;2.17;;
38549;SDS011;24322;52.004;5.948;2022-08-03T07:53:36;11.23;;;3.33;;
38549;SDS011;24322;52.004;5.948;2022-08-03T07:56:02;8.50;;;2.25;;
38549;SDS011;24322;52.004;5.948;2022-08-03T07:58:27;6.05;;;2.03;;
38549;SDS011;24322;52.004;5.948;2022-08-03T08:00:53;4.97;;;2.30;;
38549;SDS011;24322;52.004;5.948;2022-08-03T08:03:19;10.50;;;2.42;;
38549;SDS011;24322;52.004;5.948;2022-08-03T08:05:45;7.25;;;1.67;;
38549;SDS011;24322;52.004;5.948;2022-08-03T08:08:11;12.57;;;2.45;;
38549;SDS011;24322;52.004;5.948;2022-08-03T08:10:37;13.75;;;2.65;;
38549;SDS011;24322;52.004;5.948;2022-08-03T08:13:03;6.00;;;2.22;;
38549;SDS011;24322;52.004;5.948;2022-08-03T08:15:29;5.82;;;2.13;;
38549;SDS011;24322;52.004;5.948;2022-08-03T08:17:56;5.25;;;1.80;;
38549;SDS011;24322;52.004;5.948;2022-08-03T08:20:24;10.63;;;2.10;;
38549;SDS011;24322;52.004;5.948;2022-08-03T08:22:53;8.85;;;2.03;;
38549;SDS011;24322;52.004;5.948;2022-08-03T08:25:20;11.63;;;2.22;;
38549;SDS011;24322;52.004;5.948;2022-08-03T08:27:47;12.05;;;2.08;;
38549;SDS011;24322;52.004;5.948;2022-08-03T08:30:15;5.70;;;1.48;;
38549;SDS011;24322;52.004;5.948;2022-08-03T08:32:47;8.65;;;1.42;;
38549;SDS011;24322;52.004;5.948;2022-08-03T08:35:13;6.28;;;1.67;;
38549;SDS011;24322;52.004;5.948;2022-08-03T08:37:39;9.07;;;1.70;;
38549;SDS011;24322;52.004;5.948;2022-08-03T08:40:06;7.55;;;1.73;;
38549;SDS011;24322;52.004;5.948;2022-08-03T08:42:32;8.55;;;1.85;;
38549;SDS011;24322;52.004;5.948;2022-08-03T08:44:59;8.40;;;2.25;;
38549;SDS011;24322;52.004;5.948;2022-08-03T08:47:26;8.80;;;1.63;;
38549;SDS011;24322;52.004;5.948;2022-08-03T08:49:54;13.52;;;2.22;;
38549;SDS011;24322;52.004;5.948;2022-08-03T08:52:26;5.93;;;1.63;;
38549;SDS011;24322;52.004;5.948;2022-08-03T08:54:58;6.32;;;1.65;;
38549;SDS011;24322;52.004;5.948;2022-08-03T08:59:53;6.22;;;2.10;;
38549;SDS011;24322;52.004;5.948;2022-08-03T09:02:21;11.27;;;1.98;;
38549;SDS011;24322;52.004;5.948;2022-08-03T09:04:47;9.02;;;2.20;;
38549;SDS011;24322;52.004;5.948;2022-08-03T09:07:14;9.55;;;1.73;;
38549;SDS011;24322;52.004;5.948;2022-08-03T09:09:40;7.97;;;2.15;;
38549;SDS011;24322;52.004;5.948;2022-08-03T09:12:06;11.90;;;2.20;;
38549;SDS011;24322;52.004;5.948;2022-08-03T09:14:32;12.27;;;2.30;;
38549;SDS011;24322;52.004;5.948;2022-08-03T09:16:59;10.82;;;2.55;;
38549;SDS011;24322;52.004;5.948;2022-08-03T09:19:31;9.43;;;2.58;;
38549;SDS011;24322;52.004;5.948;2022-08-03T09:22:12;8.40;;;2.13;;
38549;SDS011;24322;52.004;5.948;2022-08-03T09:27:24;7.57;;;2.00;;
38549;SDS011;24322;52.004;5.948;2022-08-03T09:29:50;9.05;;;1.88;;
38549;SDS011;24322;52.004;5.948;2022-08-03T09:32:20;11.93;;;1.48;;
38549;SDS011;24322;52.004;5.948;2022-08-03T09:34:47;7.95;;;1.92;;
38549;SDS011;24322;52.004;5.948;2022-08-03T09:37:14;16.35;;;2.45;;
38549;SDS011;24322;52.004;5.948;2022-08-03T09:39:42;9.77;;;1.80;;
38549;SDS011;24322;52.004;5.948;2022-08-03T09:42:13;16.60;;;2.47;;
38549;SDS011;24322;52.004;5.948;2022-08-03T09:44:43;14.93;;;2.03;;
38549;SDS011;24322;52.004;5.948;2022-08-03T09:47:11;9.25;;;1.85;;
38549;SDS011;24322;52.004;5.948;2022-08-03T09:49:39;9.23;;;2.53;;
38549;SDS011;24322;52.004;5.948;2022-08-03T09:52:39;10.23;;;1.92;;
38549;SDS011;24322;52.004;5.948;2022-08-03T09:54:59;6.93;;;2.05;;
38549;SDS011;24322;52.004;5.948;2022-08-03T09:57:27;9.10;;;1.50;;
38549;SDS011;24322;52.004;5.948;2022-08-03T10:00:02;10.43;;;2.28;;
38549;SDS011;24322;52.004;5.948;2022-08-03T10:02:35;12.93;;;3.22;;
38549;SDS011;24322;52.004;5.948;2022-08-03T10:05:01;8.82;;;1.75;;
38549;SDS011;24322;52.004;5.948;2022-08-03T10:07:27;12.73;;;1.95;;
38549;SDS011;24322;52.004;5.948;2022-08-03T10:12:20;9.13;;;1.85;;
38549;SDS011;24322;52.004;5.948;2022-08-03T10:14:46;13.48;;;2.90;;
38549;SDS011;24322;52.004;5.948;2022-08-03T10:17:12;11.20;;;2.45;;
38549;SDS011;24322;52.004;5.948;2022-08-03T10:19:39;8.57;;;1.80;;
38549;SDS011;24322;52.004;5.948;2022-08-03T10:22:25;8.38;;;1.70;;
38549;SDS011;24322;52.004;5.948;2022-08-03T10:24:52;10.52;;;2.78;;
38549;SDS011;24322;52.004;5.948;2022-08-03T10:27:22;6.07;;;2.05;;
38549;SDS011;24322;52.004;5.948;2022-08-03T10:29:50;12.43;;;2.03;;
38549;SDS011;24322;52.004;5.948;2022-08-03T10:33:04;9.30;;;2.22;;
38549;SDS011;24322;52.004;5.948;2022-08-03T10:35:11;8.82;;;2.15;;
38549;SDS011;24322;52.004;5.948;2022-08-03T10:37:42;12.43;;;1.90;;
38549;SDS011;24322;52.004;5.948;2022-08-03T10:40:11;6.88;;;2.05;;
38549;SDS011;24322;52.004;5.948;2022-08-03T10:42:50;12.77;;;1.42;;
38549;SDS011;24322;52.004;5.948;2022-08-03T10:45:19;14.60;;;2.33;;
38549;SDS011;24322;52.004;5.948;2022-08-03T10:47:48;8.23;;;1.20;;
38549;SDS011;24322;52.004;5.948;2022-08-03T10:50:15;15.10;;;2.40;;
38549;SDS011;24322;52.004;5.948;2022-08-03T10:53:00;8.73;;;1.98;;
38549;SDS011;24322;52.004;5.948;2022-08-03T10:55:37;10.68;;;1.90;;
38549;SDS011;24322;52.004;5.948;2022-08-03T11:01:00;9.18;;;1.80;;
38549;SDS011;24322;52.004;5.948;2022-08-03T11:03:27;9.00;;;2.00;;
38549;SDS011;24322;52.004;5.948;2022-08-03T11:05:52;12.63;;;1.98;;
38549;SDS011;24322;52.004;5.948;2022-08-03T11:08:41;10.32;;;1.80;;
38549;SDS011;24322;52.004;5.948;2022-08-03T11:11:28;9.60;;;2.00;;
38549;SDS011;24322;52.004;5.948;2022-08-03T11:14:06;10.15;;;2.28;;
38549;SDS011;24322;52.004;5.948;2022-08-03T11:19:01;12.73;;;2.80;;
38549;SDS011;24322;52.004;5.948;2022-08-03T11:29:38;9.52;;;2.97;;
38549;SDS011;24322;52.004;5.948;2022-08-03T11:37:30;7.25;;;1.77;;
38549;SDS011;24322;52.004;5.948;2022-08-03T11:39:56;11.50;;;1.67;;
38549;SDS011;24322;52.004;5.948;2022-08-03T11:44:58;8.02;;;1.38;;
38549;SDS011;24322;52.004;5.948;2022-08-03T11:47:25;14.27;;;3.38;;
38549;SDS011;24322;52.004;5.948;2022-08-03T11:49:55;10.35;;;2.85;;
38549;SDS011;24322;52.004;5.948;2022-08-03T11:52:24;8.50;;;1.85;;
38549;SDS011;24322;52.004;5.948;2022-08-03T11:54:50;9.00;;;1.90;;
38549;SDS011;24322;52.004;5.948;2022-08-03T11:57:30;6.55;;;1.92;;
38549;SDS011;24322;52.004;5.948;2022-08-03T11:59:56;5.00;;;1.38;;
38549;SDS011;24322;52.004;5.948;2022-08-03T12:02:22;8.77;;;2.20;;
38549;SDS011;24322;52.004;5.948;2022-08-03T12:04:55;5.03;;;1.27;;
38549;SDS011;24322;52.004;5.948;2022-08-03T12:07:24;5.82;;;1.38;;
38549;SDS011;24322;52.004;5.948;2022-08-03T12:10:06;9.50;;;1.73;;
38549;SDS011;24322;52.004;5.948;2022-08-03T12:12:36;8.35;;;2.33;;
38549;SDS011;24322;52.004;5.948;2022-08-03T12:15:04;9.73;;;2.33;;
38549;SDS011;24322;52.004;5.948;2022-08-03T12:17:37;11.05;;;1.70;;
38549;SDS011;24322;52.004;5.948;2022-08-03T12:20:05;9.48;;;1.45;;
38549;SDS011;24322;52.004;5.948;2022-08-03T12:24:58;7.25;;;2.30;;
38549;SDS011;24322;52.004;5.948;2022-08-03T12:27:24;10.00;;;2.83;;
38549;SDS011;24322;52.004;5.948;2022-08-03T12:29:53;15.50;;;2.45;;
38549;SDS011;24322;52.004;5.948;2022-08-03T12:32:20;7.50;;;1.90;;
38549;SDS011;24322;52.004;5.948;2022-08-03T12:34:47;7.78;;;1.67;;
38549;SDS011;24322;52.004;5.948;2022-08-03T12:37:13;15.35;;;2.47;;
38549;SDS011;24322;52.004;5.948;2022-08-03T12:39:42;8.35;;;1.77;;
38549;SDS011;24322;52.004;5.948;2022-08-03T12:42:18;10.70;;;2.08;;
38549;SDS011;24322;52.004;5.948;2022-08-03T12:44:43;6.28;;;1.63;;
38549;SDS011;24322;52.004;5.948;2022-08-03T12:47:14;15.93;;;2.28;;
38549;SDS011;24322;52.004;5.948;2022-08-03T12:49:44;7.50;;;1.83;;
38549;SDS011;24322;52.004;5.948;2022-08-03T12:52:10;7.25;;;1.65;;
38549;SDS011;24322;52.004;5.948;2022-08-03T12:54:36;7.30;;;2.03;;
38549;SDS011;24322;52.004;5.948;2022-08-03T12:57:06;12.80;;;2.30;;
38549;SDS011;24322;52.004;5.948;2022-08-03T12:59:35;7.53;;;1.65;;
38549;SDS011;24322;52.004;5.948;2022-08-03T13:02:22;6.13;;;1.42;;
38549;SDS011;24322;52.004;5.948;2022-08-03T13:04:50;8.77;;;1.20;;
38549;SDS011;24322;52.004;5.948;2022-08-03T13:07:17;7.88;;;1.60;;
38549;SDS011;24322;52.004;5.948;2022-08-03T13:09:47;4.97;;;1.00;;
38549;SDS011;24322;52.004;5.948;2022-08-03T13:12:15;6.67;;;1.77;;
38549;SDS011;24322;52.004;5.948;2022-08-03T13:14:44;13.05;;;2.28;;
38549;SDS011;24322;52.004;5.948;2022-08-03T13:17:11;5.57;;;1.58;;
38549;SDS011;24322;52.004;5.948;2022-08-03T13:19:38;6.05;;;1.45;;
38549;SDS011;24322;52.004;5.948;2022-08-03T13:22:14;3.40;;;0.98;;
38549;SDS011;24322;52.004;5.948;2022-08-03T13:24:43;7.75;;;1.33;;
38549;SDS011;24322;52.004;5.948;2022-08-03T13:27:09;4.25;;;1.10;;
38549;SDS011;24322;52.004;5.948;2022-08-03T13:29:36;6.05;;;1.02;;
38549;SDS011;24322;52.004;5.948;2022-08-03T13:32:02;7.65;;;1.58;;
38549;SDS011;24322;52.004;5.948;2022-08-03T13:34:29;4.10;;;1.10;;
38549;SDS011;24322;52.004;5.948;2022-08-03T13:36:55;7.00;;;1.35;;
38549;SDS011;24322;52.004;5.948;2022-08-03T13:39:20;3.50;;;0.68;;
38549;SDS011;24322;52.004;5.948;2022-08-03T13:41:46;2.67;;;1.10;;
38549;SDS011;24322;52.004;5.948;2022-08-03T13:44:12;5.47;;;1.30;;
38549;SDS011;24322;52.004;5.948;2022-08-03T13:46:38;5.32;;;1.10;;
38549;SDS011;24322;52.004;5.948;2022-08-03T13:49:04;4.88;;;0.90;;
38549;SDS011;24322;52.004;5.948;2022-08-03T13:51:31;3.67;;;1.13;;
38549;SDS011;24322;52.004;5.948;2022-08-03T13:53:57;2.15;;;1.02;;
38549;SDS011;24322;52.004;5.948;2022-08-03T13:56:24;4.47;;;0.98;;
38549;SDS011;24322;52.004;5.948;2022-08-03T13:58:50;2.92;;;1.10;;
38549;SDS011;24322;52.004;5.948;2022-08-03T14:01:15;3.58;;;1.60;;
38549;SDS011;24322;52.004;5.948;2022-08-03T14:03:41;7.22;;;1.35;;
38549;SDS011;24322;52.004;5.948;2022-08-03T14:06:07;4.78;;;1.10;;
38549;SDS011;24322;52.004;5.948;2022-08-03T14:08:32;1.85;;;0.75;;
38549;SDS011;24322;52.004;5.948;2022-08-03T14:10:58;2.67;;;1.25;;
38549;SDS011;24322;52.004;5.948;2022-08-03T14:13:24;1.67;;;1.00;;
38549;SDS011;24322;52.004;5.948;2022-08-03T14:15:49;3.65;;;1.10;;
38549;SDS011;24322;52.004;5.948;2022-08-03T14:18:16;6.63;;;1.63;;
38549;SDS011;24322;52.004;5.948;2022-08-03T14:20:45;2.35;;;1.05;;
38549;SDS011;24322;52.004;5.948;2022-08-03T14:23:11;1.83;;;0.68;;
38549;SDS011;24322;52.004;5.948;2022-08-03T14:25:37;3.92;;;0.93;;
38549;SDS011;24322;52.004;5.948;2022-08-03T14:28:05;3.22;;;1.30;;
38549;SDS011;24322;52.004;5.948;2022-08-03T14:30:31;3.78;;;0.90;;
38549;SDS011;24322;52.004;5.948;2022-08-03T14:32:56;2.72;;;1.00;;
38549;SDS011;24322;52.004;5.948;2022-08-03T14:35:22;3.60;;;1.10;;
38549;SDS011;24322;52.004;5.948;2022-08-03T14:37:48;6.03;;;1.83;;
38549;SDS011;24322;52.004;5.948;2022-08-03T14:40:13;2.53;;;1.17;;
38549;SDS011;24322;52.004;5.948;2022-08-03T14:42:39;4.57;;;1.58;;
38549;SDS011;24322;52.004;5.948;2022-08-03T14:45:04;3.60;;;1.33;;
38549;SDS011;24322;52.004;5.948;2022-08-03T14:47:30;4.18;;;1.50;;
38549;SDS011;24322;52.004;5.948;2022-08-03T14:49:57;2.35;;;0.77;;
38549;SDS011;24322;52.004;5.948;2022-08-03T14:52:22;3.30;;;0.98;;
38549;SDS011;24322;52.004;5.948;2022-08-03T14:54:48;3.45;;;1.30;;
38549;SDS011;24322;52.004;5.948;2022-08-03T14:57:14;3.78;;;1.05;;
38549;SDS011;24322;52.004;5.948;2022-08-03T14:59:39;2.60;;;0.93;;
38549;SDS011;24322;52.004;5.948;2022-08-03T15:02:05;2.30;;;1.00;;
38549;SDS011;24322;52.004;5.948;2022-08-03T15:04:30;3.90;;;1.27;;
38549;SDS011;24322;52.004;5.948;2022-08-03T15:06:56;1.63;;;0.95;;
38549;SDS011;24322;52.004;5.948;2022-08-03T15:09:22;2.75;;;0.82;;
38549;SDS011;24322;52.004;5.948;2022-08-03T15:11:47;5.30;;;1.10;;
38549;SDS011;24322;52.004;5.948;2022-08-03T15:14:13;2.78;;;1.10;;
38549;SDS011;24322;52.004;5.948;2022-08-03T15:16:38;3.08;;;1.20;;
38549;SDS011;24322;52.004;5.948;2022-08-03T15:19:04;5.88;;;1.30;;
38549;SDS011;24322;52.004;5.948;2022-08-03T15:21:30;1.95;;;0.75;;
38549;SDS011;24322;52.004;5.948;2022-08-03T15:23:56;1.70;;;0.65;;
38549;SDS011;24322;52.004;5.948;2022-08-03T15:26:21;2.72;;;0.80;;
38549;SDS011;24322;52.004;5.948;2022-08-03T15:28:47;3.78;;;1.45;;
38549;SDS011;24322;52.004;5.948;2022-08-03T15:31:13;3.65;;;0.93;;
38549;SDS011;24322;52.004;5.948;2022-08-03T15:33:38;3.20;;;1.05;;
38549;SDS011;24322;52.004;5.948;2022-08-03T15:36:04;4.00;;;1.50;;